Time;durP1;ratioP1;P1;durP2;ratioP2;P2;SDS_P1;SDS_P2;PMS_P1;PMS_P2;Temp;Humidity;BMP_temperature;BMP_pressure;BME280_temperature;BME280_humidity;BME280_pressure;Samples;Min_cycle;Max_cycle;Signal;HPM_P1;HPM_P2
2021/09/06 00:01:03;;;;;;;0.10;0.10;;;;;;;;;;5005537;28;20210;-65
2021/09/06 00:03:30;;;;;;;0.10;0.10;;;;;;;;;;5008794;28;20245;-66
2021/09/06 00:05:57;;;;;;;0.00;0.00;;;;;;;;;;5025119;28;20208;-65
2021/09/06 00:08:23;;;;;;;0.10;0.10;;;;;;;;;;5035264;28;20207;-65
2021/09/06 00:11:00;;;;;;;0.10;0.10;;;;;;;;;;5005251;28;20488;-65
2021/09/06 00:13:26;;;;;;;0.10;0.10;;;;;;;;;;5007112;28;20522;-66
2021/09/06 00:15:53;;;;;;;0.10;0.10;;;;;;;;;;5020709;28;20203;-66
2021/09/06 00:18:19;;;;;;;0.00;0.00;;;;;;;;;;5005225;28;20512;-66
2021/09/06 00:20:46;;;;;;;0.10;0.10;;;;;;;;;;5021009;28;20214;-65
2021/09/06 00:23:12;;;;;;;0.10;0.10;;;;;;;;;;5016244;28;20251;-65
2021/09/06 00:25:39;;;;;;;0.10;0.10;;;;;;;;;;5008640;28;20204;-66
2021/09/06 00:28:05;;;;;;;0.10;0.10;;;;;;;;;;5004677;28;20204;-65
2021/09/06 00:30:32;;;;;;;0.10;0.10;;;;;;;;;;5017331;28;20208;-65
2021/09/06 00:32:59;;;;;;;0.10;0.10;;;;;;;;;;5006095;28;20273;-65
2021/09/06 00:35:26;;;;;;;0.10;0.10;;;;;;;;;;5004962;28;20213;-65
2021/09/06 00:37:52;;;;;;;0.00;0.00;;;;;;;;;;5004766;28;20513;-65
2021/09/06 00:40:18;;;;;;;0.00;0.00;;;;;;;;;;5013712;28;20208;-66
2021/09/06 00:42:45;;;;;;;0.10;0.10;;;;;;;;;;5023247;28;20283;-65
2021/09/06 00:45:11;;;;;;;0.10;0.10;;;;;;;;;;5011728;28;20285;-64
2021/09/06 00:47:38;;;;;;;0.10;0.10;;;;;;;;;;5010828;28;20207;-64
2021/09/06 00:50:09;;;;;;;0.10;0.10;;;;;;;;;;5009539;28;20210;-64
2021/09/06 00:52:35;;;;;;;0.10;0.10;;;;;;;;;;5012336;28;20222;-64
2021/09/06 00:55:01;;;;;;;0.10;0.10;;;;;;;;;;5035843;28;20199;-65
2021/09/06 00:57:28;;;;;;;0.10;0.10;;;;;;;;;;5032237;28;20207;-64
2021/09/06 00:59:54;;;;;;;0.03;0.03;;;;;;;;;;5011381;28;20227;-64
2021/09/06 01:02:20;;;;;;;0.10;0.10;;;;;;;;;;5004341;28;20215;-65
2021/09/06 01:04:47;;;;;;;0.10;0.10;;;;;;;;;;5003834;28;20243;-65
2021/09/06 01:07:14;;;;;;;0.10;0.10;;;;;;;;;;5003950;28;20227;-65
2021/09/06 01:09:40;;;;;;;0.10;0.10;;;;;;;;;;5016505;28;20211;-65
2021/09/06 01:12:07;;;;;;;0.00;0.00;;;;;;;;;;5019044;28;20205;-65
2021/09/06 01:14:33;;;;;;;0.10;0.10;;;;;;;;;;5003703;28;20218;-65
2021/09/06 01:17:01;;;;;;;0.10;0.10;;;;;;;;;;5008008;28;20459;-65
2021/09/06 01:19:27;;;;;;;0.10;0.10;;;;;;;;;;5009191;28;20208;-65
2021/09/06 01:21:53;;;;;;;0.10;0.10;;;;;;;;;;5023581;28;20374;-65
2021/09/06 01:24:21;;;;;;;0.10;0.10;;;;;;;;;;5018836;28;20271;-65
2021/09/06 01:26:49;;;;;;;0.10;0.10;;;;;;;;;;5003925;28;20212;-65
2021/09/06 01:29:16;;;;;;;0.10;0.10;;;;;;;;;;5003837;28;20250;-65
2021/09/06 01:31:42;;;;;;;0.10;0.10;;;;;;;;;;5003840;28;20219;-65
2021/09/06 01:34:09;;;;;;;0.10;0.10;;;;;;;;;;5017521;28;20204;-67
2021/09/06 01:36:36;;;;;;;0.10;0.10;;;;;;;;;;5011327;28;20207;-65
2021/09/06 01:39:02;;;;;;;0.10;0.10;;;;;;;;;;5023440;28;20392;-65
2021/09/06 01:41:29;;;;;;;0.10;0.10;;;;;;;;;;5009302;28;20209;-65
2021/09/06 01:43:56;;;;;;;0.10;0.10;;;;;;;;;;5011144;28;20226;-65
2021/09/06 01:46:26;;;;;;;0.10;0.10;;;;;;;;;;5021462;28;20272;-65
2021/09/06 01:48:54;;;;;;;0.10;0.10;;;;;;;;;;5021633;28;20208;-65
2021/09/06 01:51:20;;;;;;;0.10;0.10;;;;;;;;;;5003029;28;20211;-66
2021/09/06 01:53:46;;;;;;;0.00;0.00;;;;;;;;;;5003515;28;20204;-65
2021/09/06 01:56:13;;;;;;;0.10;0.10;;;;;;;;;;5003434;28;20329;-65
2021/09/06 01:58:39;;;;;;;0.10;0.10;;;;;;;;;;5003304;28;20515;-65
2021/09/06 02:01:07;;;;;;;0.10;0.10;;;;;;;;;;5005537;28;20204;-65
2021/09/06 02:03:33;;;;;;;0.10;0.10;;;;;;;;;;5013377;28;20302;-65
2021/09/06 02:06:00;;;;;;;0.10;0.10;;;;;;;;;;5021948;28;20398;-65
2021/09/06 02:08:26;;;;;;;0.10;0.10;;;;;;;;;;5025355;28;20229;-65
2021/09/06 02:10:54;;;;;;;0.10;0.10;;;;;;;;;;5024635;28;20212;-65
2021/09/06 02:13:20;;;;;;;0.10;0.10;;;;;;;;;;5022278;28;20206;-65
2021/09/06 02:15:46;;;;;;;0.10;0.10;;;;;;;;;;5016605;28;20429;-65
2021/09/06 02:18:14;;;;;;;0.00;0.00;;;;;;;;;;5022439;28;20256;-65
2021/09/06 02:20:40;;;;;;;0.10;0.10;;;;;;;;;;5007242;28;20211;-65
2021/09/06 02:23:07;;;;;;;0.10;0.10;;;;;;;;;;5010253;28;20514;-65
2021/09/06 02:25:33;;;;;;;0.00;0.00;;;;;;;;;;5009231;28;20564;-65
2021/09/06 02:27:59;;;;;;;0.10;0.10;;;;;;;;;;5008374;28;20297;-65
2021/09/06 02:30:26;;;;;;;0.10;0.10;;;;;;;;;;5011015;28;20206;-65
2021/09/06 02:32:52;;;;;;;0.10;0.10;;;;;;;;;;5002888;28;20320;-65
2021/09/06 02:35:19;;;;;;;0.10;0.10;;;;;;;;;;5012469;28;20242;-65
2021/09/06 02:37:46;;;;;;;0.10;0.10;;;;;;;;;;5014452;28;20211;-65
2021/09/06 02:40:12;;;;;;;0.00;0.00;;;;;;;;;;5010757;28;20206;-65
2021/09/06 02:42:39;;;;;;;0.10;0.10;;;;;;;;;;5008257;28;20297;-65
2021/09/06 02:45:06;;;;;;;0.00;0.00;;;;;;;;;;5002580;28;20280;-65
2021/09/06 02:47:32;;;;;;;0.10;0.10;;;;;;;;;;5002779;28;20235;-65
2021/09/06 02:50:01;;;;;;;0.10;0.10;;;;;;;;;;5020481;28;20506;-65
2021/09/06 02:52:29;;;;;;;0.07;0.07;;;;;;;;;;5016545;28;20214;-65
2021/09/06 02:54:55;;;;;;;0.10;0.10;;;;;;;;;;5022072;28;20204;-65
2021/09/06 02:57:21;;;;;;;0.10;0.10;;;;;;;;;;5022416;28;20287;-65
2021/09/06 02:59:48;;;;;;;0.00;0.00;;;;;;;;;;5008852;28;20552;-65
2021/09/06 03:02:14;;;;;;;0.10;0.10;;;;;;;;;;5008147;28;20210;-65
2021/09/06 03:04:40;;;;;;;0.07;0.07;;;;;;;;;;5033797;28;20234;-65
2021/09/06 03:07:07;;;;;;;0.10;0.10;;;;;;;;;;5024273;28;20225;-65
2021/09/06 03:09:35;;;;;;;0.10;0.10;;;;;;;;;;5012639;28;20209;-65
2021/09/06 03:12:02;;;;;;;0.10;0.10;;;;;;;;;;5018432;28;20280;-65
2021/09/06 03:14:28;;;;;;;0.10;0.10;;;;;;;;;;5014224;28;20215;-65
2021/09/06 03:16:54;;;;;;;0.10;0.10;;;;;;;;;;5002389;28;20215;-65
2021/09/06 03:19:20;;;;;;;0.10;0.10;;;;;;;;;;5006297;28;20211;-65
2021/09/06 03:21:46;;;;;;;0.10;0.10;;;;;;;;;;5018537;28;20206;-65
2021/09/06 03:24:13;;;;;;;0.10;0.10;;;;;;;;;;5034776;28;20233;-65
2021/09/06 03:26:40;;;;;;;0.10;0.10;;;;;;;;;;5015812;28;20254;-65
2021/09/06 03:29:07;;;;;;;0.10;0.10;;;;;;;;;;5023518;28;20254;-65
2021/09/06 03:31:33;;;;;;;0.10;0.10;;;;;;;;;;5006127;28;20407;-65
2021/09/06 03:33:59;;;;;;;0.10;0.10;;;;;;;;;;5006358;28;20207;-65
2021/09/06 03:36:25;;;;;;;0.10;0.10;;;;;;;;;;5019183;28;20257;-64
2021/09/06 03:38:52;;;;;;;0.10;0.10;;;;;;;;;;5018271;28;20266;-65
2021/09/06 03:41:18;;;;;;;0.10;0.10;;;;;;;;;;5011726;28;20252;-65
2021/09/06 03:43:46;;;;;;;0.10;0.10;;;;;;;;;;5014978;28;20207;-65
2021/09/06 03:46:12;;;;;;;0.10;0.10;;;;;;;;;;5005471;28;20237;-65
2021/09/06 03:48:38;;;;;;;0.10;0.10;;;;;;;;;;5005475;28;20205;-65
2021/09/06 03:51:05;;;;;;;0.10;0.10;;;;;;;;;;5006691;28;20207;-65
2021/09/06 03:53:31;;;;;;;0.10;0.10;;;;;;;;;;5018255;28;20233;-65
2021/09/06 03:55:57;;;;;;;0.10;0.10;;;;;;;;;;5018609;28;20203;-65
2021/09/06 03:58:23;;;;;;;0.00;0.00;;;;;;;;;;5007797;28;20203;-65
2021/09/06 04:00:51;;;;;;;0.10;0.10;;;;;;;;;;5005537;28;20273;-65
2021/09/06 04:03:17;;;;;;;0.10;0.10;;;;;;;;;;5021244;28;20237;-64
2021/09/06 04:05:43;;;;;;;0.10;0.10;;;;;;;;;;5016366;28;20221;-65
2021/09/06 04:08:09;;;;;;;0.10;0.10;;;;;;;;;;5005070;28;20214;-66
2021/09/06 04:10:35;;;;;;;0.10;0.10;;;;;;;;;;5011985;28;20488;-65
2021/09/06 04:13:02;;;;;;;0.10;0.10;;;;;;;;;;5012030;28;20215;-65
2021/09/06 04:15:28;;;;;;;0.10;0.10;;;;;;;;;;5009785;28;20197;-66
2021/09/06 04:17:56;;;;;;;0.10;0.10;;;;;;;;;;5021047;28;20245;-66
2021/09/06 04:20:22;;;;;;;0.07;0.07;;;;;;;;;;5007668;28;20246;-66
2021/09/06 04:22:48;;;;;;;0.10;0.10;;;;;;;;;;5004994;28;20208;-66
2021/09/06 04:25:15;;;;;;;0.10;0.10;;;;;;;;;;5020184;28;20226;-66
2021/09/06 04:27:41;;;;;;;0.10;0.10;;;;;;;;;;5024459;28;20528;-66
2021/09/06 04:30:07;;;;;;;0.10;0.10;;;;;;;;;;5024002;28;20225;-65
2021/09/06 04:32:33;;;;;;;0.10;0.10;;;;;;;;;;5005246;28;20269;-66
2021/09/06 04:35:01;;;;;;;0.10;0.10;;;;;;;;;;5016457;28;20415;-65
2021/09/06 04:37:28;;;;;;;0.10;0.10;;;;;;;;;;5024192;28;20244;-65
2021/09/06 04:39:54;;;;;;;0.10;0.10;;;;;;;;;;5024543;28;20587;-65
2021/09/06 04:42:20;;;;;;;0.10;0.10;;;;;;;;;;5008745;28;20206;-66
2021/09/06 04:44:46;;;;;;;0.10;0.10;;;;;;;;;;5012801;28;20225;-66
2021/09/06 04:47:13;;;;;;;3.93;3.50;;;;;;;;;;5024239;28;20206;-67
2021/09/06 04:49:39;;;;;;;0.10;0.10;;;;;;;;;;5004689;28;20445;-66
2021/09/06 04:52:08;;;;;;;0.10;0.10;;;;;;;;;;5004475;28;20217;-66
2021/09/06 04:54:34;;;;;;;0.10;0.10;;;;;;;;;;5004516;28;20299;-66
2021/09/06 04:57:00;;;;;;;0.10;0.10;;;;;;;;;;5004013;28;20232;-66
2021/09/06 04:59:26;;;;;;;0.10;0.10;;;;;;;;;;5003984;28;20202;-66
2021/09/06 05:01:52;;;;;;;0.10;0.10;;;;;;;;;;5004231;28;20207;-65
2021/09/06 05:04:19;;;;;;;0.10;0.10;;;;;;;;;;5003819;28;20234;-65
2021/09/06 05:06:45;;;;;;;0.10;0.10;;;;;;;;;;5010370;28;20255;-65
2021/09/06 05:09:12;;;;;;;0.23;0.23;;;;;;;;;;5018575;28;20247;-65
2021/09/06 05:11:39;;;;;;;0.00;0.00;;;;;;;;;;5004257;28;20211;-65
2021/09/06 05:14:05;;;;;;;0.10;0.10;;;;;;;;;;5004124;28;20207;-65
2021/09/06 05:16:31;;;;;;;0.00;0.00;;;;;;;;;;5003989;28;20252;-66
2021/09/06 05:18:57;;;;;;;0.10;0.10;;;;;;;;;;5015054;28;20560;-66
2021/09/06 05:21:23;;;;;;;0.10;0.10;;;;;;;;;;5031845;28;20206;-66
2021/09/06 05:23:50;;;;;;;0.10;0.10;;;;;;;;;;5005812;28;20512;-66
2021/09/06 05:26:17;;;;;;;0.10;0.10;;;;;;;;;;5003657;28;20333;-66
2021/09/06 05:28:43;;;;;;;0.10;0.10;;;;;;;;;;5019573;28;20206;-66
2021/09/06 05:31:10;;;;;;;0.10;0.10;;;;;;;;;;5023399;28;20207;-66
2021/09/06 05:33:36;;;;;;;0.00;0.00;;;;;;;;;;5009208;28;20303;-66
2021/09/06 05:36:03;;;;;;;0.10;0.10;;;;;;;;;;5009836;28;20237;-66
2021/09/06 05:38:29;;;;;;;0.10;0.10;;;;;;;;;;5011183;28;20212;-66
2021/09/06 05:40:55;;;;;;;0.10;0.10;;;;;;;;;;5021562;28;20549;-65
2021/09/06 05:43:23;;;;;;;0.10;0.10;;;;;;;;;;5012932;28;20209;-65
2021/09/06 05:45:49;;;;;;;0.10;0.10;;;;;;;;;;5017316;28;20539;-65
2021/09/06 05:48:15;;;;;;;0.10;0.10;;;;;;;;;;5003639;28;20297;-65
2021/09/06 05:50:41;;;;;;;0.10;0.10;;;;;;;;;;5004288;28;20206;-66
2021/09/06 05:53:07;;;;;;;0.10;0.10;;;;;;;;;;5022779;28;20212;-65
2021/09/06 05:55:34;;;;;;;0.10;0.10;;;;;;;;;;5022776;28;20205;-65
2021/09/06 05:58:00;;;;;;;0.10;0.10;;;;;;;;;;5023281;28;20205;-65
2021/09/06 06:00:27;;;;;;;0.10;0.10;;;;;;;;;;5003573;28;20215;-65
2021/09/06 06:02:53;;;;;;;0.10;0.10;;;;;;;;;;5005045;28;20437;-66
2021/09/06 06:05:20;;;;;;;0.10;0.10;;;;;;;;;;5009774;28;20216;-65
2021/09/06 06:07:46;;;;;;;0.10;0.10;;;;;;;;;;5013805;28;20204;-65
2021/09/06 06:10:12;;;;;;;0.10;0.10;;;;;;;;;;5013161;28;20206;-66
2021/09/06 06:12:38;;;;;;;0.10;0.10;;;;;;;;;;5011228;28;20206;-66
2021/09/06 06:15:05;;;;;;;0.10;0.10;;;;;;;;;;5011290;28;20544;-65
2021/09/06 06:17:33;;;;;;;0.10;0.10;;;;;;;;;;5020353;28;20205;-67
2021/09/06 06:19:59;;;;;;;0.10;0.10;;;;;;;;;;5008110;28;20208;-67
2021/09/06 06:22:25;;;;;;;0.10;0.10;;;;;;;;;;5014915;28;20248;-65
2021/09/06 06:24:51;;;;;;;0.10;0.10;;;;;;;;;;5011746;28;20209;-65
2021/09/06 06:27:18;;;;;;;0.10;0.10;;;;;;;;;;5011813;28;20255;-65
2021/09/06 06:29:44;;;;;;;0.10;0.10;;;;;;;;;;5019651;28;20227;-66
2021/09/06 06:32:10;;;;;;;0.10;0.10;;;;;;;;;;5010608;28;20535;-65
2021/09/06 06:34:38;;;;;;;0.10;0.10;;;;;;;;;;5018997;28;20257;-66
2021/09/06 06:37:04;;;;;;;0.10;0.10;;;;;;;;;;5013176;28;20205;-65
2021/09/06 06:39:30;;;;;;;0.10;0.10;;;;;;;;;;5020229;28;20217;-66
2021/09/06 06:41:56;;;;;;;0.10;0.10;;;;;;;;;;5022073;28;20276;-65
2021/09/06 06:44:23;;;;;;;0.10;0.10;;;;;;;;;;5029800;28;20205;-66
2021/09/06 06:46:49;;;;;;;0.10;0.10;;;;;;;;;;5033192;28;20230;-65
2021/09/06 06:49:15;;;;;;;0.10;0.10;;;;;;;;;;5022618;28;20205;-65
2021/09/06 06:51:43;;;;;;;0.10;0.10;;;;;;;;;;5025316;28;20207;-66
2021/09/06 06:54:09;;;;;;;0.10;0.10;;;;;;;;;;5027121;28;20206;-66
2021/09/06 06:56:35;;;;;;;0.10;0.10;;;;;;;;;;5039181;28;20203;-65
2021/09/06 06:59:02;;;;;;;0.10;0.10;;;;;;;;;;5027038;28;20523;-65
2021/09/06 07:01:28;;;;;;;0.10;0.10;;;;;;;;;;5029077;28;20213;-66
2021/09/06 07:03:54;;;;;;;0.10;0.10;;;;;;;;;;5006153;28;20230;-66
2021/09/06 07:06:20;;;;;;;0.10;0.10;;;;;;;;;;5019855;28;20249;-66
2021/09/06 07:08:48;;;;;;;0.03;0.03;;;;;;;;;;5006672;28;20218;-66
2021/09/06 07:11:14;;;;;;;0.00;0.00;;;;;;;;;;5006384;28;20665;-65
2021/09/06 07:13:40;;;;;;;0.10;0.10;;;;;;;;;;5006524;28;20206;-65
2021/09/06 07:16:07;;;;;;;0.10;0.10;;;;;;;;;;5006151;28;20206;-66
2021/09/06 07:18:34;;;;;;;0.00;0.00;;;;;;;;;;5020140;28;20277;-66
2021/09/06 07:21:00;;;;;;;0.00;0.00;;;;;;;;;;5014398;28;20292;-67
2021/09/06 07:23:26;;;;;;;0.10;0.10;;;;;;;;;;5011591;28;20484;-66
2021/09/06 07:25:54;;;;;;;0.10;0.10;;;;;;;;;;5016559;28;20403;-67
2021/09/06 07:28:20;;;;;;;0.10;0.10;;;;;;;;;;5025896;28;20226;-66
2021/09/06 07:30:46;;;;;;;0.10;0.10;;;;;;;;;;5023846;28;20293;-64
2021/09/06 07:33:13;;;;;;;0.00;0.00;;;;;;;;;;5016630;28;20258;-66
2021/09/06 07:35:39;;;;;;;0.10;0.10;;;;;;;;;;5020565;28;20198;-67
2021/09/06 07:38:05;;;;;;;0.10;0.10;;;;;;;;;;5033425;28;20209;-65
2021/09/06 07:40:31;;;;;;;0.10;0.10;;;;;;;;;;5010555;28;20482;-66
2021/09/06 07:42:59;;;;;;;0.05;0.05;;;;;;;;;;5005910;28;20518;-67
2021/09/06 07:45:26;;;;;;;0.10;0.10;;;;;;;;;;5005812;28;20213;-67
2021/09/06 07:47:52;;;;;;;0.00;0.00;;;;;;;;;;5015331;28;20203;-67
2021/09/06 07:50:20;;;;;;;0.00;0.00;;;;;;;;;;5019211;28;20261;-67
2021/09/06 07:52:46;;;;;;;0.10;0.10;;;;;;;;;;5025414;28;20275;-67
2021/09/06 07:55:12;;;;;;;0.00;0.00;;;;;;;;;;5025120;28;20216;-67
2021/09/06 07:57:39;;;;;;;0.10;0.10;;;;;;;;;;5022733;28;20205;-67
2021/09/06 08:00:07;;;;;;;0.00;0.00;;;;;;;;;;5025503;28;20263;-66
2021/09/06 08:02:37;;;;;;;0.10;0.10;;;;;;;;;;5024764;28;20216;-65
2021/09/06 08:05:04;;;;;;;0.10;0.10;;;;;;;;;;5009652;28;20229;-67
2021/09/06 08:07:30;;;;;;;0.08;0.08;;;;;;;;;;5015978;28;20240;-66
2021/09/06 08:09:56;;;;;;;0.10;0.10;;;;;;;;;;5033036;28;20209;-66
2021/09/06 08:12:22;;;;;;;0.10;0.10;;;;;;;;;;5012370;28;20231;-66
2021/09/06 08:14:49;;;;;;;0.10;0.10;;;;;;;;;;5024518;28;20207;-65
2021/09/06 08:17:16;;;;;;;0.00;0.00;;;;;;;;;;5019579;28;20220;-65
2021/09/06 08:19:42;;;;;;;0.10;0.10;;;;;;;;;;5005145;28;20212;-67
2021/09/06 08:22:09;;;;;;;0.00;0.00;;;;;;;;;;5012770;28;20203;-66
2021/09/06 08:24:36;;;;;;;0.10;0.10;;;;;;;;;;5034788;28;20440;-66
2021/09/06 08:27:03;;;;;;;0.00;0.00;;;;;;;;;;5024616;28;20228;-66
2021/09/06 08:29:29;;;;;;;0.08;0.08;;;;;;;;;;5016436;28;20261;-66
2021/09/06 08:31:55;;;;;;;0.10;0.10;;;;;;;;;;5019039;28;20388;-67
2021/09/06 08:34:23;;;;;;;0.10;0.10;;;;;;;;;;5023923;28;20244;-65
2021/09/06 08:36:49;;;;;;;0.05;0.05;;;;;;;;;;5015072;28;20203;-64
2021/09/06 08:39:15;;;;;;;0.00;0.00;;;;;;;;;;5015134;28;20211;-66
2021/09/06 08:41:43;;;;;;;0.05;0.05;;;;;;;;;;5024459;28;20208;-66
2021/09/06 08:44:09;;;;;;;0.10;0.10;;;;;;;;;;5018826;28;20209;-67
2021/09/06 08:46:36;;;;;;;0.10;0.10;;;;;;;;;;5023625;28;20234;-67
2021/09/06 08:49:02;;;;;;;0.10;0.10;;;;;;;;;;5014291;28;20383;-66
2021/09/06 08:51:30;;;;;;;0.10;0.10;;;;;;;;;;5029774;28;20524;-67
2021/09/06 08:53:56;;;;;;;0.10;0.10;;;;;;;;;;5014108;28;20348;-66
2021/09/06 08:56:23;;;;;;;0.00;0.00;;;;;;;;;;5029630;28;20202;-63
2021/09/06 08:58:49;;;;;;;0.05;0.05;;;;;;;;;;5022285;28;20207;-65
2021/09/06 09:01:15;;;;;;;0.10;0.10;;;;;;;;;;5030263;28;20214;-64
2021/09/06 09:03:42;;;;;;;0.00;0.00;;;;;;;;;;5031483;28;20241;-64
2021/09/06 09:06:08;;;;;;;0.00;0.00;;;;;;;;;;5021239;28;20232;-64
2021/09/06 09:08:39;;;;;;;0.00;0.00;;;;;;;;;;5024053;28;20223;-64
2021/09/06 09:11:06;;;;;;;0.10;0.10;;;;;;;;;;5024429;28;20508;-64
2021/09/06 09:13:34;;;;;;;0.00;0.00;;;;;;;;;;5035628;28;20207;-63
2021/09/06 09:16:01;;;;;;;0.08;0.08;;;;;;;;;;5030348;28;20200;-63
2021/09/06 09:18:30;;;;;;;0.10;0.10;;;;;;;;;;5043802;28;20231;-64
2021/09/06 09:21:00;;;;;;;0.10;0.10;;;;;;;;;;5035776;28;20204;-63
2021/09/06 09:23:39;;;;;;;0.10;0.10;;;;;;;;;;5023773;28;20227;-63
2021/09/06 09:26:05;;;;;;;0.08;0.08;;;;;;;;;;5023394;28;20235;-63
2021/09/06 09:28:32;;;;;;;0.08;0.08;;;;;;;;;;5011543;28;20236;-63
2021/09/06 09:31:05;;;;;;;0.10;0.10;;;;;;;;;;5023293;28;20437;-62
2021/09/06 09:33:31;;;;;;;0.00;0.00;;;;;;;;;;5034863;28;20197;-62
2021/09/06 09:35:58;;;;;;;0.00;0.00;;;;;;;;;;5015533;28;20262;-62
2021/09/06 09:38:33;;;;;;;0.00;0.00;;;;;;;;;;5022007;28;20214;-63
2021/09/06 09:41:01;;;;;;;0.00;0.00;;;;;;;;;;5012501;28;20255;-62
2021/09/06 09:43:29;;;;;;;0.00;0.00;;;;;;;;;;5032658;28;20303;-61
2021/09/06 09:46:01;;;;;;;0.00;0.00;;;;;;;;;;5029544;28;20205;-61
2021/09/06 09:48:27;;;;;;;0.00;0.00;;;;;;;;;;5027118;28;20300;-62
2021/09/06 09:50:53;;;;;;;0.00;0.00;;;;;;;;;;5019596;28;20213;-63
2021/09/06 09:53:20;;;;;;;0.00;0.00;;;;;;;;;;5023426;28;20209;-61
2021/09/06 09:55:47;;;;;;;0.00;0.00;;;;;;;;;;5023374;28;20426;-62
2021/09/06 09:58:16;;;;;;;0.00;0.00;;;;;;;;;;5025994;28;20219;-61
2021/09/06 10:00:43;;;;;;;0.00;0.00;;;;;;;;;;5033765;28;20279;-61
2021/09/06 10:03:10;;;;;;;0.00;0.00;;;;;;;;;;5007730;28;20369;-61
2021/09/06 10:05:37;;;;;;;0.00;0.00;;;;;;;;;;5012437;28;20264;-62
2021/09/06 10:08:05;;;;;;;0.00;0.00;;;;;;;;;;5018237;28;20229;-62
2021/09/06 10:10:36;;;;;;;0.00;0.00;;;;;;;;;;5009442;28;20213;-61
2021/09/06 10:13:04;;;;;;;0.10;0.10;;;;;;;;;;5022928;28;20212;-61
2021/09/06 10:15:33;;;;;;;0.00;0.00;;;;;;;;;;5017626;28;20207;-61
2021/09/06 10:18:01;;;;;;;0.00;0.00;;;;;;;;;;5016528;28;20272;-61
2021/09/06 10:20:27;;;;;;;0.05;0.05;;;;;;;;;;5012912;28;20450;-62
2021/09/06 10:23:04;;;;;;;0.10;0.10;;;;;;;;;;5010866;28;20288;-62
2021/09/06 10:25:32;;;;;;;0.00;0.00;;;;;;;;;;5011910;28;20197;-61
2021/09/06 10:28:03;;;;;;;0.00;0.00;;;;;;;;;;5021363;28;20237;-62
2021/09/06 10:30:35;;;;;;;0.00;0.00;;;;;;;;;;5018868;28;20244;-61
2021/09/06 10:33:01;;;;;;;0.00;0.00;;;;;;;;;;5017285;28;20205;-61
2021/09/06 10:35:28;;;;;;;0.00;0.00;;;;;;;;;;5022380;28;20255;-62
2021/09/06 10:38:00;;;;;;;0.00;0.00;;;;;;;;;;5013263;28;20484;-64
2021/09/06 10:40:28;;;;;;;0.00;0.00;;;;;;;;;;5013780;28;20433;-64
2021/09/06 10:42:54;;;;;;;0.00;0.00;;;;;;;;;;5014052;28;20201;-66
2021/09/06 10:45:21;;;;;;;0.00;0.00;;;;;;;;;;5011516;28;20210;-66
2021/09/06 10:47:57;;;;;;;0.00;0.00;;;;;;;;;;5014685;28;20587;-64
2021/09/06 10:50:24;;;;;;;0.00;0.00;;;;;;;;;;5012013;28;20241;-64
2021/09/06 10:52:51;;;;;;;0.00;0.00;;;;;;;;;;5011963;28;20205;-63
2021/09/06 10:55:18;;;;;;;0.00;0.00;;;;;;;;;;5019786;28;20211;-63
2021/09/06 10:57:45;;;;;;;0.00;0.00;;;;;;;;;;5006384;28;20505;-63
2021/09/06 11:00:15;;;;;;;0.20;0.20;;;;;;;;;;5019483;28;20247;-64
2021/09/06 11:02:42;;;;;;;0.00;0.00;;;;;;;;;;5020157;28;20431;-63
2021/09/06 11:05:16;;;;;;;0.00;0.00;;;;;;;;;;5019299;28;20598;-62
2021/09/06 11:07:42;;;;;;;0.00;0.00;;;;;;;;;;5022114;28;20208;-62
2021/09/06 11:10:09;;;;;;;0.00;0.00;;;;;;;;;;5019131;28;20251;-62
2021/09/06 11:12:35;;;;;;;0.00;0.00;;;;;;;;;;5022050;28;20202;-63
2021/09/06 11:15:02;;;;;;;0.08;0.08;;;;;;;;;;5022050;28;20512;-62
2021/09/06 11:17:30;;;;;;;0.00;0.00;;;;;;;;;;5018935;28;20205;-63
2021/09/06 11:19:57;;;;;;;0.00;0.00;;;;;;;;;;5022009;28;20228;-62
2021/09/06 11:22:26;;;;;;;0.00;0.00;;;;;;;;;;5022016;28;20209;-61
2021/09/06 11:24:55;;;;;;;0.00;0.00;;;;;;;;;;5021869;28;20212;-62
2021/09/06 11:27:23;;;;;;;0.00;0.00;;;;;;;;;;5024150;28;20248;-62
2021/09/06 11:29:49;;;;;;;0.00;0.00;;;;;;;;;;5016501;28;20213;-60
2021/09/06 11:32:16;;;;;;;0.10;0.10;;;;;;;;;;5021882;28;20260;-61
2021/09/06 11:34:42;;;;;;;0.00;0.00;;;;;;;;;;5021750;28;20543;-60
2021/09/06 11:37:08;;;;;;;0.00;0.00;;;;;;;;;;5021259;28;20252;-61
2021/09/06 11:39:36;;;;;;;0.10;0.10;;;;;;;;;;5020767;28;20268;-61
2021/09/06 11:42:03;;;;;;;0.00;0.00;;;;;;;;;;5024890;28;20448;-61
2021/09/06 11:44:29;;;;;;;0.00;0.00;;;;;;;;;;5022626;28;20250;-61
2021/09/06 11:46:55;;;;;;;0.08;0.08;;;;;;;;;;5024066;28;20439;-60
2021/09/06 11:49:21;;;;;;;0.10;0.10;;;;;;;;;;5024430;28;20209;-61
2021/09/06 11:51:48;;;;;;;0.08;0.08;;;;;;;;;;5019843;28;20547;-63
2021/09/06 12:03:25;;;;;;;0.00;0.00;;;;;;;;;;5019989;28;20207;-62
2021/09/06 12:05:55;;;;;;;0.00;0.00;;;;;;;;;;5027641;28;20205;-61
2021/09/06 12:08:23;;;;;;;0.00;0.00;;;;;;;;;;5012230;28;20227;-61
2021/09/06 12:10:49;;;;;;;1.48;1.38;;;;;;;;;;5036454;28;20277;-61
2021/09/06 12:13:19;;;;;;;0.10;0.10;;;;;;;;;;5037166;28;20274;-61
2021/09/06 12:15:52;;;;;;;0.00;0.00;;;;;;;;;;5012965;28;20201;-61
2021/09/06 12:18:18;;;;;;;0.00;0.00;;;;;;;;;;5024189;28;20275;-62
2021/09/06 12:20:46;;;;;;;0.00;0.00;;;;;;;;;;5024881;28;20202;-61
2021/09/06 12:23:13;;;;;;;0.00;0.00;;;;;;;;;;5024786;28;20205;-61
2021/09/06 12:25:40;;;;;;;0.00;0.00;;;;;;;;;;5024703;28;20399;-62
2021/09/06 12:28:08;;;;;;;0.10;0.10;;;;;;;;;;5015903;28;20221;-62
2021/09/06 12:30:34;;;;;;;0.10;0.10;;;;;;;;;;5034159;28;20223;-61
2021/09/06 12:33:00;;;;;;;0.00;0.00;;;;;;;;;;5024696;28;20202;-62
2021/09/06 12:35:27;;;;;;;0.00;0.00;;;;;;;;;;5023010;28;20500;-61
2021/09/06 12:37:54;;;;;;;0.00;0.00;;;;;;;;;;5031111;28;20194;-61
2021/09/06 12:40:21;;;;;;;0.00;0.00;;;;;;;;;;5027217;28;20213;-61
2021/09/06 12:42:50;;;;;;;0.00;0.00;;;;;;;;;;5016508;28;20221;-61
2021/09/06 12:45:16;;;;;;;0.00;0.00;;;;;;;;;;5032321;28;20233;-61
2021/09/06 12:47:42;;;;;;;0.00;0.00;;;;;;;;;;5024210;28;20221;-60
2021/09/06 12:50:09;;;;;;;0.00;0.00;;;;;;;;;;5023706;28;20388;-60
2021/09/06 12:52:35;;;;;;;0.10;0.10;;;;;;;;;;5015099;28;20248;-60
2021/09/06 12:55:03;;;;;;;0.00;0.00;;;;;;;;;;5033077;28;20202;-60
2021/09/06 12:57:29;;;;;;;0.03;0.03;;;;;;;;;;5024215;28;20550;-61
2021/09/06 12:59:55;;;;;;;0.00;0.00;;;;;;;;;;5021358;28;20210;-61
2021/09/06 13:02:22;;;;;;;0.00;0.00;;;;;;;;;;5013266;28;20237;-60
2021/09/06 13:04:48;;;;;;;0.00;0.00;;;;;;;;;;5009818;28;20233;-67
2021/09/06 13:07:14;;;;;;;0.00;0.00;;;;;;;;;;5024197;28;20240;-67
2021/09/06 13:09:40;;;;;;;0.00;0.00;;;;;;;;;;5024295;28;20205;-67
2021/09/06 13:12:08;;;;;;;0.00;0.00;;;;;;;;;;5032847;28;20476;-70
2021/09/06 13:14:34;;;;;;;0.00;0.00;;;;;;;;;;5018735;28;20205;-66
2021/09/06 13:17:00;;;;;;;0.00;0.00;;;;;;;;;;5027348;28;20205;-66
2021/09/06 13:19:27;;;;;;;0.00;0.00;;;;;;;;;;5024956;28;20248;-66
2021/09/06 13:21:53;;;;;;;0.00;0.00;;;;;;;;;;5016922;28;20272;-66
2021/09/06 13:24:19;;;;;;;0.00;0.00;;;;;;;;;;5014495;28;20213;-66
2021/09/06 13:26:45;;;;;;;0.10;0.10;;;;;;;;;;5017942;28;20202;-65
2021/09/06 13:29:13;;;;;;;0.20;0.20;;;;;;;;;;5016444;28;20233;-66
2021/09/06 13:31:39;;;;;;;0.00;0.00;;;;;;;;;;5020089;28;20213;-66
2021/09/06 13:34:06;;;;;;;0.00;0.00;;;;;;;;;;5014550;28;20293;-66
2021/09/06 13:36:37;;;;;;;0.10;0.10;;;;;;;;;;5011616;28;20202;-77
2021/09/06 13:39:03;;;;;;;0.00;0.00;;;;;;;;;;5018571;28;20216;-71
2021/09/06 13:41:30;;;;;;;0.00;0.00;;;;;;;;;;5019103;28;20380;-66
2021/09/06 13:43:56;;;;;;;0.00;0.00;;;;;;;;;;5020200;28;20203;-66
2021/09/06 13:46:24;;;;;;;0.00;0.00;;;;;;;;;;5009280;28;20248;-67
2021/09/06 13:48:50;;;;;;;0.00;0.00;;;;;;;;;;5018392;28;20230;-67
2021/09/06 13:51:17;;;;;;;0.00;0.00;;;;;;;;;;5022661;28;20555;-66
2021/09/06 13:53:43;;;;;;;0.00;0.00;;;;;;;;;;5013807;28;20244;-66
2021/09/06 13:56:10;;;;;;;0.05;0.05;;;;;;;;;;5012318;28;20213;-64
2021/09/06 13:58:39;;;;;;;0.00;0.00;;;;;;;;;;5013078;28;20260;-74
2021/09/06 14:01:05;;;;;;;0.00;0.00;;;;;;;;;;5014850;28;20216;-65
2021/09/06 14:03:33;;;;;;;0.00;0.00;;;;;;;;;;5025341;28;20256;-65
2021/09/06 14:05:59;;;;;;;0.00;0.00;;;;;;;;;;5015808;28;20229;-68
2021/09/06 14:08:25;;;;;;;0.00;0.00;;;;;;;;;;5014229;28;20316;-68
2021/09/06 14:10:54;;;;;;;0.15;0.15;;;;;;;;;;5012640;28;20214;-66
2021/09/06 14:13:20;;;;;;;0.10;0.10;;;;;;;;;;5013385;28;20205;-66
2021/09/06 14:15:46;;;;;;;0.03;0.03;;;;;;;;;;5017407;28;20240;-66
2021/09/06 14:18:12;;;;;;;0.00;0.00;;;;;;;;;;5021809;28;20225;-64
2021/09/06 14:20:40;;;;;;;0.00;0.00;;;;;;;;;;5014805;28;20205;-66
2021/09/06 14:23:07;;;;;;;0.10;0.10;;;;;;;;;;5013205;28;20211;-65
2021/09/06 14:25:33;;;;;;;0.10;0.10;;;;;;;;;;5014654;28;20256;-65
2021/09/06 14:27:59;;;;;;;0.00;0.00;;;;;;;;;;5016624;28;20217;-65
2021/09/06 14:30:25;;;;;;;0.00;0.00;;;;;;;;;;5013693;28;20215;-65
2021/09/06 14:32:52;;;;;;;0.00;0.00;;;;;;;;;;5019586;28;20206;-66
2021/09/06 14:35:18;;;;;;;0.00;0.00;;;;;;;;;;5015251;28;20237;-66
2021/09/06 14:37:46;;;;;;;0.00;0.00;;;;;;;;;;5018291;28;20201;-65
2021/09/06 14:40:12;;;;;;;0.17;0.17;;;;;;;;;;5009241;28;20233;-65
2021/09/06 14:42:39;;;;;;;0.00;0.00;;;;;;;;;;5020888;28;20225;-65
2021/09/06 14:45:06;;;;;;;0.00;0.00;;;;;;;;;;5026987;28;20197;-66
2021/09/06 14:47:33;;;;;;;0.00;0.00;;;;;;;;;;5022921;28;20201;-63
2021/09/06 14:50:00;;;;;;;0.00;0.00;;;;;;;;;;5013211;28;20374;-67